sensor_id;sensor_type;location;lat;lon;timestamp;temperature;humidity
13344;DHT22;6741;48.964;9.406;2023-06-22T00:01:16;19.80;99.90
13344;DHT22;6741;48.964;9.406;2023-06-22T00:03:43;19.70;99.90
13344;DHT22;6741;48.964;9.406;2023-06-22T00:06:09;19.70;99.90
13344;DHT22;6741;48.964;9.406;2023-06-22T00:08:38;19.70;99.90
13344;DHT22;6741;48.964;9.406;2023-06-22T00:11:04;19.60;99.90
13344;DHT22;6741;48.964;9.406;2023-06-22T00:13:31;19.60;99.90
13344;DHT22;6741;48.964;9.406;2023-06-22T00:15:58;19.60;99.90
13344;DHT22;6741;48.964;9.406;2023-06-22T00:18:25;19.60;99.90
13344;DHT22;6741;48.964;9.406;2023-06-22T00:20:54;19.60;99.90
13344;DHT22;6741;48.964;9.406;2023-06-22T00:23:23;19.50;99.90
13344;DHT22;6741;48.964;9.406;2023-06-22T00:25:51;19.60;99.90
13344;DHT22;6741;48.964;9.406;2023-06-22T00:28:18;19.50;99.90
13344;DHT22;6741;48.964;9.406;2023-06-22T00:30:45;19.50;99.90
13344;DHT22;6741;48.964;9.406;2023-06-22T00:33:13;19.40;99.90
13344;DHT22;6741;48.964;9.406;2023-06-22T00:35:41;19.40;99.90
13344;DHT22;6741;48.964;9.406;2023-06-22T00:38:08;19.40;99.90
13344;DHT22;6741;48.964;9.406;2023-06-22T00:40:35;19.30;99.90
13344;DHT22;6741;48.964;9.406;2023-06-22T00:43:05;19.30;99.90
13344;DHT22;6741;48.964;9.406;2023-06-22T00:45:32;19.30;99.90
13344;DHT22;6741;48.964;9.406;2023-06-22T00:47:59;19.20;99.90
13344;DHT22;6741;48.964;9.406;2023-06-22T00:50:28;19.20;99.90
13344;DHT22;6741;48.964;9.406;2023-06-22T00:53:00;19.20;99.90
13344;DHT22;6741;48.964;9.406;2023-06-22T00:55:29;19.20;99.90
13344;DHT22;6741;48.964;9.406;2023-06-22T00:57:56;19.10;99.90
13344;DHT22;6741;48.964;9.406;2023-06-22T01:00:24;19.10;99.90
13344;DHT22;6741;48.964;9.406;2023-06-22T01:02:52;19.00;99.90
13344;DHT22;6741;48.964;9.406;2023-06-22T01:05:20;19.00;99.90
13344;DHT22;6741;48.964;9.406;2023-06-22T01:08:04;19.10;99.90
13344;DHT22;6741;48.964;9.406;2023-06-22T01:10:38;19.10;99.90
13344;DHT22;6741;48.964;9.406;2023-06-22T01:13:11;19.10;99.90
13344;DHT22;6741;48.964;9.406;2023-06-22T01:15:45;19.10;99.90
13344;DHT22;6741;48.964;9.406;2023-06-22T01:18:16;19.10;99.90
13344;DHT22;6741;48.964;9.406;2023-06-22T01:20:44;19.00;99.90
13344;DHT22;6741;48.964;9.406;2023-06-22T01:23:36;19.00;99.90
13344;DHT22;6741;48.964;9.406;2023-06-22T01:26:08;19.00;99.90
13344;DHT22;6741;48.964;9.406;2023-06-22T01:28:45;18.90;99.90
13344;DHT22;6741;48.964;9.406;2023-06-22T01:31:15;18.90;99.90
13344;DHT22;6741;48.964;9.406;2023-06-22T01:33:45;18.90;99.90
13344;DHT22;6741;48.964;9.406;2023-06-22T01:36:13;18.90;99.90
13344;DHT22;6741;48.964;9.406;2023-06-22T01:38:41;18.90;99.90
13344;DHT22;6741;48.964;9.406;2023-06-22T01:41:09;18.90;99.90
13344;DHT22;6741;48.964;9.406;2023-06-22T01:43:36;18.90;99.90
13344;DHT22;6741;48.964;9.406;2023-06-22T01:46:05;18.90;99.90
13344;DHT22;6741;48.964;9.406;2023-06-22T01:48:32;18.90;99.90
13344;DHT22;6741;48.964;9.406;2023-06-22T01:50:59;18.90;99.90
13344;DHT22;6741;48.964;9.406;2023-06-22T01:53:26;19.00;99.90
13344;DHT22;6741;48.964;9.406;2023-06-22T01:55:53;19.00;99.90
13344;DHT22;6741;48.964;9.406;2023-06-22T01:58:21;18.90;99.90
13344;DHT22;6741;48.964;9.406;2023-06-22T02:00:53;18.90;99.90
13344;DHT22;6741;48.964;9.406;2023-06-22T02:03:29;18.90;99.90
13344;DHT22;6741;48.964;9.406;2023-06-22T02:06:01;19.00;99.90
13344;DHT22;6741;48.964;9.406;2023-06-22T02:08:32;19.00;99.90
13344;DHT22;6741;48.964;9.406;2023-06-22T02:11:00;19.00;99.90
13344;DHT22;6741;48.964;9.406;2023-06-22T02:13:29;18.90;99.90
13344;DHT22;6741;48.964;9.406;2023-06-22T02:15:57;18.90;99.90
13344;DHT22;6741;48.964;9.406;2023-06-22T02:18:25;18.90;99.90
13344;DHT22;6741;48.964;9.406;2023-06-22T02:20:52;18.80;99.90
13344;DHT22;6741;48.964;9.406;2023-06-22T02:23:20;18.80;99.90
13344;DHT22;6741;48.964;9.406;2023-06-22T02:25:47;18.70;99.90
13344;DHT22;6741;48.964;9.406;2023-06-22T02:28:14;18.70;99.90
13344;DHT22;6741;48.964;9.406;2023-06-22T02:30:40;18.60;99.90
13344;DHT22;6741;48.964;9.406;2023-06-22T02:33:07;18.50;99.90
13344;DHT22;6741;48.964;9.406;2023-06-22T02:35:35;18.50;99.90
13344;DHT22;6741;48.964;9.406;2023-06-22T02:38:03;18.50;99.90
13344;DHT22;6741;48.964;9.406;2023-06-22T02:40:31;18.40;99.90
13344;DHT22;6741;48.964;9.406;2023-06-22T02:42:58;18.40;99.90
13344;DHT22;6741;48.964;9.406;2023-06-22T02:45:27;18.30;99.90
13344;DHT22;6741;48.964;9.406;2023-06-22T02:47:54;18.30;99.90
13344;DHT22;6741;48.964;9.406;2023-06-22T02:50:21;18.30;99.90
13344;DHT22;6741;48.964;9.406;2023-06-22T02:52:49;18.20;99.90
13344;DHT22;6741;48.964;9.406;2023-06-22T02:55:16;18.20;99.90
13344;DHT22;6741;48.964;9.406;2023-06-22T02:57:43;18.20;99.90
13344;DHT22;6741;48.964;9.406;2023-06-22T03:00:13;18.10;99.90
13344;DHT22;6741;48.964;9.406;2023-06-22T03:02:43;18.10;99.90
13344;DHT22;6741;48.964;9.406;2023-06-22T03:05:10;18.10;99.90
13344;DHT22;6741;48.964;9.406;2023-06-22T03:07:39;18.10;99.90
13344;DHT22;6741;48.964;9.406;2023-06-22T03:10:08;18.20;99.90
13344;DHT22;6741;48.964;9.406;2023-06-22T03:12:36;18.10;99.90
13344;DHT22;6741;48.964;9.406;2023-06-22T03:15:05;18.10;99.90
13344;DHT22;6741;48.964;9.406;2023-06-22T03:17:32;18.20;99.90
13344;DHT22;6741;48.964;9.406;2023-06-22T03:19:58;18.20;99.90
13344;DHT22;6741;48.964;9.406;2023-06-22T03:22:25;18.30;99.90
13344;DHT22;6741;48.964;9.406;2023-06-22T03:24:52;18.30;99.90
13344;DHT22;6741;48.964;9.406;2023-06-22T03:27:20;18.30;99.90
13344;DHT22;6741;48.964;9.406;2023-06-22T03:29:47;18.30;99.90
13344;DHT22;6741;48.964;9.406;2023-06-22T03:32:14;18.40;99.90
13344;DHT22;6741;48.964;9.406;2023-06-22T03:34:41;18.40;99.90
13344;DHT22;6741;48.964;9.406;2023-06-22T03:37:13;18.50;99.90
13344;DHT22;6741;48.964;9.406;2023-06-22T03:39:40;18.50;99.90
13344;DHT22;6741;48.964;9.406;2023-06-22T03:42:07;18.60;99.90
13344;DHT22;6741;48.964;9.406;2023-06-22T03:44:35;18.60;99.90
13344;DHT22;6741;48.964;9.406;2023-06-22T03:47:03;18.70;99.90
13344;DHT22;6741;48.964;9.406;2023-06-22T03:49:32;18.60;99.90
13344;DHT22;6741;48.964;9.406;2023-06-22T03:51:59;18.60;99.90
13344;DHT22;6741;48.964;9.406;2023-06-22T03:54:26;18.60;99.90
13344;DHT22;6741;48.964;9.406;2023-06-22T03:56:53;18.60;99.90
13344;DHT22;6741;48.964;9.406;2023-06-22T03:59:20;18.60;99.90
13344;DHT22;6741;48.964;9.406;2023-06-22T04:01:48;18.70;99.90
13344;DHT22;6741;48.964;9.406;2023-06-22T04:04:16;18.60;99.90
13344;DHT22;6741;48.964;9.406;2023-06-22T04:06:43;18.70;99.90
13344;DHT22;6741;48.964;9.406;2023-06-22T04:09:10;18.70;99.90
13344;DHT22;6741;48.964;9.406;2023-06-22T04:11:36;18.70;99.90
13344;DHT22;6741;48.964;9.406;2023-06-22T04:14:03;18.70;99.90
13344;DHT22;6741;48.964;9.406;2023-06-22T04:16:30;18.70;99.90
13344;DHT22;6741;48.964;9.406;2023-06-22T04:18:58;18.80;99.90
13344;DHT22;6741;48.964;9.406;2023-06-22T04:21:25;18.80;99.90
13344;DHT22;6741;48.964;9.406;2023-06-22T04:23:52;18.80;99.90
13344;DHT22;6741;48.964;9.406;2023-06-22T04:26:20;18.80;99.90
13344;DHT22;6741;48.964;9.406;2023-06-22T04:28:47;18.90;99.90
13344;DHT22;6741;48.964;9.406;2023-06-22T04:31:17;19.00;99.90
13344;DHT22;6741;48.964;9.406;2023-06-22T04:33:43;19.10;99.90
13344;DHT22;6741;48.964;9.406;2023-06-22T04:36:12;19.10;99.90
13344;DHT22;6741;48.964;9.406;2023-06-22T04:38:39;19.20;99.90
13344;DHT22;6741;48.964;9.406;2023-06-22T04:41:05;19.30;99.90
13344;DHT22;6741;48.964;9.406;2023-06-22T04:43:35;19.30;99.90
13344;DHT22;6741;48.964;9.406;2023-06-22T04:46:02;19.40;99.90
13344;DHT22;6741;48.964;9.406;2023-06-22T04:48:29;19.50;99.90
13344;DHT22;6741;48.964;9.406;2023-06-22T04:50:58;19.60;99.90
13344;DHT22;6741;48.964;9.406;2023-06-22T04:53:31;19.70;99.90
13344;DHT22;6741;48.964;9.406;2023-06-22T04:55:58;19.80;99.90
13344;DHT22;6741;48.964;9.406;2023-06-22T04:58:25;19.80;99.90
13344;DHT22;6741;48.964;9.406;2023-06-22T05:00:54;19.90;99.90
13344;DHT22;6741;48.964;9.406;2023-06-22T05:03:22;20.00;99.90
13344;DHT22;6741;48.964;9.406;2023-06-22T05:05:51;20.10;99.90
13344;DHT22;6741;48.964;9.406;2023-06-22T05:08:19;20.10;99.90
13344;DHT22;6741;48.964;9.406;2023-06-22T05:10:47;20.20;99.90
13344;DHT22;6741;48.964;9.406;2023-06-22T05:13:14;20.30;99.90
13344;DHT22;6741;48.964;9.406;2023-06-22T05:15:41;20.30;99.90
13344;DHT22;6741;48.964;9.406;2023-06-22T05:18:08;20.50;99.90
13344;DHT22;6741;48.964;9.406;2023-06-22T05:20:37;20.50;99.90
13344;DHT22;6741;48.964;9.406;2023-06-22T05:23:04;20.60;99.90
13344;DHT22;6741;48.964;9.406;2023-06-22T05:25:31;20.70;99.90
13344;DHT22;6741;48.964;9.406;2023-06-22T05:27:59;20.80;99.90
13344;DHT22;6741;48.964;9.406;2023-06-22T05:30:27;20.90;99.90
13344;DHT22;6741;48.964;9.406;2023-06-22T05:32:54;21.00;99.90
13344;DHT22;6741;48.964;9.406;2023-06-22T05:35:21;21.00;99.90
13344;DHT22;6741;48.964;9.406;2023-06-22T05:37:48;21.20;99.90
13344;DHT22;6741;48.964;9.406;2023-06-22T05:40:15;21.20;99.90
13344;DHT22;6741;48.964;9.406;2023-06-22T05:42:42;21.30;99.90
13344;DHT22;6741;48.964;9.406;2023-06-22T05:45:10;21.40;99.90
13344;DHT22;6741;48.964;9.406;2023-06-22T05:47:37;21.40;99.90
13344;DHT22;6741;48.964;9.406;2023-06-22T05:50:05;21.50;99.90
13344;DHT22;6741;48.964;9.406;2023-06-22T05:52:34;21.60;99.90
13344;DHT22;6741;48.964;9.406;2023-06-22T05:55:02;21.80;99.90
13344;DHT22;6741;48.964;9.406;2023-06-22T05:57:29;21.90;99.90
13344;DHT22;6741;48.964;9.406;2023-06-22T05:59:56;22.00;99.90
13344;DHT22;6741;48.964;9.406;2023-06-22T06:02:24;22.00;99.90
13344;DHT22;6741;48.964;9.406;2023-06-22T06:04:51;22.10;99.90
13344;DHT22;6741;48.964;9.406;2023-06-22T06:07:18;22.20;99.90
13344;DHT22;6741;48.964;9.406;2023-06-22T06:09:45;22.20;99.90
13344;DHT22;6741;48.964;9.406;2023-06-22T06:12:11;22.30;99.90
13344;DHT22;6741;48.964;9.406;2023-06-22T06:14:38;22.30;99.90
13344;DHT22;6741;48.964;9.406;2023-06-22T06:17:05;22.30;99.90
13344;DHT22;6741;48.964;9.406;2023-06-22T06:19:33;22.40;99.90
13344;DHT22;6741;48.964;9.406;2023-06-22T06:22:00;22.40;99.90
13344;DHT22;6741;48.964;9.406;2023-06-22T06:24:27;22.30;99.90
13344;DHT22;6741;48.964;9.406;2023-06-22T06:26:54;22.30;99.90
13344;DHT22;6741;48.964;9.406;2023-06-22T06:29:21;22.30;99.90
13344;DHT22;6741;48.964;9.406;2023-06-22T06:31:49;22.30;99.90
13344;DHT22;6741;48.964;9.406;2023-06-22T06:34:16;22.40;99.90
13344;DHT22;6741;48.964;9.406;2023-06-22T06:36:44;22.50;99.90
13344;DHT22;6741;48.964;9.406;2023-06-22T06:39:11;22.50;99.90
13344;DHT22;6741;48.964;9.406;2023-06-22T06:41:38;22.50;99.90
13344;DHT22;6741;48.964;9.406;2023-06-22T06:44:04;22.60;99.90
13344;DHT22;6741;48.964;9.406;2023-06-22T06:46:31;22.80;99.90
13344;DHT22;6741;48.964;9.406;2023-06-22T06:48:58;22.90;99.90
13344;DHT22;6741;48.964;9.406;2023-06-22T06:51:25;23.10;99.90
13344;DHT22;6741;48.964;9.406;2023-06-22T06:53:53;23.20;99.90
13344;DHT22;6741;48.964;9.406;2023-06-22T06:56:20;23.30;99.90
13344;DHT22;6741;48.964;9.406;2023-06-22T06:58:49;23.50;94.90
13344;DHT22;6741;48.964;9.406;2023-06-22T07:01:16;23.50;96.90
13344;DHT22;6741;48.964;9.406;2023-06-22T07:03:44;23.70;77.40
13344;DHT22;6741;48.964;9.406;2023-06-22T07:06:11;23.80;57.30
13344;DHT22;6741;48.964;9.406;2023-06-22T07:08:38;24.00;59.00
13344;DHT22;6741;48.964;9.406;2023-06-22T07:11:06;24.00;49.20
13344;DHT22;6741;48.964;9.406;2023-06-22T07:13:33;24.20;52.50
13344;DHT22;6741;48.964;9.406;2023-06-22T07:16:00;24.30;35.80
13344;DHT22;6741;48.964;9.406;2023-06-22T07:18:27;24.40;14.10
13344;DHT22;6741;48.964;9.406;2023-06-22T07:20:54;24.60;24.70
13344;DHT22;6741;48.964;9.406;2023-06-22T07:23:21;24.70;8.80
13344;DHT22;6741;48.964;9.406;2023-06-22T07:25:48;24.70;1.00
13344;DHT22;6741;48.964;9.406;2023-06-22T07:28:16;24.80;1.00
13344;DHT22;6741;48.964;9.406;2023-06-22T07:30:43;24.90;1.00
13344;DHT22;6741;48.964;9.406;2023-06-22T07:33:10;25.10;1.00
13344;DHT22;6741;48.964;9.406;2023-06-22T07:35:36;25.20;1.00
13344;DHT22;6741;48.964;9.406;2023-06-22T07:38:03;25.30;1.00
13344;DHT22;6741;48.964;9.406;2023-06-22T07:40:30;25.40;1.00
13344;DHT22;6741;48.964;9.406;2023-06-22T07:42:57;25.50;1.00
13344;DHT22;6741;48.964;9.406;2023-06-22T07:45:25;25.60;1.00
13344;DHT22;6741;48.964;9.406;2023-06-22T07:47:52;25.80;1.00
13344;DHT22;6741;48.964;9.406;2023-06-22T07:50:19;25.80;1.00
13344;DHT22;6741;48.964;9.406;2023-06-22T07:52:46;25.80;1.00
13344;DHT22;6741;48.964;9.406;2023-06-22T07:55:14;26.10;1.00
13344;DHT22;6741;48.964;9.406;2023-06-22T07:57:41;26.20;1.00
13344;DHT22;6741;48.964;9.406;2023-06-22T08:00:08;26.40;1.00
13344;DHT22;6741;48.964;9.406;2023-06-22T08:02:46;26.40;99.90
13344;DHT22;6741;48.964;9.406;2023-06-22T08:05:14;26.40;99.90
13344;DHT22;6741;48.964;9.406;2023-06-22T08:07:41;26.50;99.90
13344;DHT22;6741;48.964;9.406;2023-06-22T08:10:11;26.50;99.90
13344;DHT22;6741;48.964;9.406;2023-06-22T08:12:38;26.70;1.00
13344;DHT22;6741;48.964;9.406;2023-06-22T08:15:06;26.90;1.00
13344;DHT22;6741;48.964;9.406;2023-06-22T08:17:36;27.10;1.00
13344;DHT22;6741;48.964;9.406;2023-06-22T08:20:04;27.30;1.00
13344;DHT22;6741;48.964;9.406;2023-06-22T08:22:35;27.40;1.00
13344;DHT22;6741;48.964;9.406;2023-06-22T08:25:02;27.60;99.90
13344;DHT22;6741;48.964;9.406;2023-06-22T08:27:30;27.70;99.90
13344;DHT22;6741;48.964;9.406;2023-06-22T08:29:57;27.80;99.90
13344;DHT22;6741;48.964;9.406;2023-06-22T08:32:24;28.00;99.90
13344;DHT22;6741;48.964;9.406;2023-06-22T08:34:52;28.00;1.00
13344;DHT22;6741;48.964;9.406;2023-06-22T08:37:20;28.20;1.00
13344;DHT22;6741;48.964;9.406;2023-06-22T08:39:49;28.40;99.90
13344;DHT22;6741;48.964;9.406;2023-06-22T08:42:16;28.70;1.00
13344;DHT22;6741;48.964;9.406;2023-06-22T08:44:43;29.00;99.90
13344;DHT22;6741;48.964;9.406;2023-06-22T08:47:10;29.00;99.90
13344;DHT22;6741;48.964;9.406;2023-06-22T08:49:37;28.70;99.90
13344;DHT22;6741;48.964;9.406;2023-06-22T08:52:04;28.80;1.00
13344;DHT22;6741;48.964;9.406;2023-06-22T08:54:32;29.00;1.00
13344;DHT22;6741;48.964;9.406;2023-06-22T08:57:00;29.30;99.90
13344;DHT22;6741;48.964;9.406;2023-06-22T08:59:27;29.40;1.00
13344;DHT22;6741;48.964;9.406;2023-06-22T09:01:54;29.50;99.90
13344;DHT22;6741;48.964;9.406;2023-06-22T09:04:22;29.40;1.00
13344;DHT22;6741;48.964;9.406;2023-06-22T09:06:49;29.40;1.00
13344;DHT22;6741;48.964;9.406;2023-06-22T09:09:18;29.30;1.00
13344;DHT22;6741;48.964;9.406;2023-06-22T09:11:47;29.40;1.00
13344;DHT22;6741;48.964;9.406;2023-06-22T09:14:13;29.50;1.00
13344;DHT22;6741;48.964;9.406;2023-06-22T09:16:40;29.70;1.00
13344;DHT22;6741;48.964;9.406;2023-06-22T09:19:07;29.80;1.00
13344;DHT22;6741;48.964;9.406;2023-06-22T09:21:34;30.10;1.00
13344;DHT22;6741;48.964;9.406;2023-06-22T09:24:01;30.30;99.90
13344;DHT22;6741;48.964;9.406;2023-06-22T09:26:28;30.10;1.00
13344;DHT22;6741;48.964;9.406;2023-06-22T09:28:56;30.10;1.00
13344;DHT22;6741;48.964;9.406;2023-06-22T09:31:24;30.20;1.00
13344;DHT22;6741;48.964;9.406;2023-06-22T09:33:52;30.50;1.00
13344;DHT22;6741;48.964;9.406;2023-06-22T09:36:19;30.20;1.00
13344;DHT22;6741;48.964;9.406;2023-06-22T09:38:47;29.40;1.00
13344;DHT22;6741;48.964;9.406;2023-06-22T09:41:14;29.20;1.00
13344;DHT22;6741;48.964;9.406;2023-06-22T09:43:41;29.40;1.00
13344;DHT22;6741;48.964;9.406;2023-06-22T09:46:11;29.70;99.90
13344;DHT22;6741;48.964;9.406;2023-06-22T09:48:38;30.10;23.80
13344;DHT22;6741;48.964;9.406;2023-06-22T09:51:05;30.00;1.00
13344;DHT22;6741;48.964;9.406;2023-06-22T09:53:32;30.00;99.90
13344;DHT22;6741;48.964;9.406;2023-06-22T09:56:00;30.30;1.00
13344;DHT22;6741;48.964;9.406;2023-06-22T09:58:27;29.90;1.00
13344;DHT22;6741;48.964;9.406;2023-06-22T10:00:54;29.80;1.00
13344;DHT22;6741;48.964;9.406;2023-06-22T10:03:22;30.10;1.00
13344;DHT22;6741;48.964;9.406;2023-06-22T10:05:49;30.70;99.90
13344;DHT22;6741;48.964;9.406;2023-06-22T10:08:16;31.10;1.00
13344;DHT22;6741;48.964;9.406;2023-06-22T10:10:43;31.40;1.00
13344;DHT22;6741;48.964;9.406;2023-06-22T10:13:10;31.50;1.00
13344;DHT22;6741;48.964;9.406;2023-06-22T10:15:37;31.30;23.70
13344;DHT22;6741;48.964;9.406;2023-06-22T10:18:04;31.90;1.00
13344;DHT22;6741;48.964;9.406;2023-06-22T10:20:33;32.20;1.00
13344;DHT22;6741;48.964;9.406;2023-06-22T10:23:00;31.90;99.90
13344;DHT22;6741;48.964;9.406;2023-06-22T10:25:27;32.50;1.00
13344;DHT22;6741;48.964;9.406;2023-06-22T10:27:54;32.80;1.00
13344;DHT22;6741;48.964;9.406;2023-06-22T10:30:21;32.90;1.00
13344;DHT22;6741;48.964;9.406;2023-06-22T10:32:49;32.80;1.00
13344;DHT22;6741;48.964;9.406;2023-06-22T10:35:15;32.60;1.00
13344;DHT22;6741;48.964;9.406;2023-06-22T10:37:44;32.50;99.90
13344;DHT22;6741;48.964;9.406;2023-06-22T10:40:12;32.60;99.90
13344;DHT22;6741;48.964;9.406;2023-06-22T10:42:40;32.80;1.00
13344;DHT22;6741;48.964;9.406;2023-06-22T10:45:08;33.30;1.00
13344;DHT22;6741;48.964;9.406;2023-06-22T10:47:35;33.50;99.90
13344;DHT22;6741;48.964;9.406;2023-06-22T10:50:03;33.90;99.90
13344;DHT22;6741;48.964;9.406;2023-06-22T10:52:30;34.50;1.00
13344;DHT22;6741;48.964;9.406;2023-06-22T10:54:58;34.80;1.00
13344;DHT22;6741;48.964;9.406;2023-06-22T10:57:28;34.30;99.90
13344;DHT22;6741;48.964;9.406;2023-06-22T10:59:55;34.10;1.00
13344;DHT22;6741;48.964;9.406;2023-06-22T11:02:22;34.40;1.00
13344;DHT22;6741;48.964;9.406;2023-06-22T11:04:50;34.60;99.90
13344;DHT22;6741;48.964;9.406;2023-06-22T11:07:17;34.60;99.90
13344;DHT22;6741;48.964;9.406;2023-06-22T11:09:43;34.50;99.90
13344;DHT22;6741;48.964;9.406;2023-06-22T11:12:12;34.20;99.90
13344;DHT22;6741;48.964;9.406;2023-06-22T11:14:39;33.80;1.00
13344;DHT22;6741;48.964;9.406;2023-06-22T11:17:06;33.40;1.00
13344;DHT22;6741;48.964;9.406;2023-06-22T11:19:32;33.30;94.80
13344;DHT22;6741;48.964;9.406;2023-06-22T11:21:59;33.20;1.00
13344;DHT22;6741;48.964;9.406;2023-06-22T11:24:26;33.10;99.90
13344;DHT22;6741;48.964;9.406;2023-06-22T11:26:53;32.90;1.00
13344;DHT22;6741;48.964;9.406;2023-06-22T11:29:21;33.00;1.00
13344;DHT22;6741;48.964;9.406;2023-06-22T11:31:48;33.30;99.90
13344;DHT22;6741;48.964;9.406;2023-06-22T11:34:15;33.30;99.90
13344;DHT22;6741;48.964;9.406;2023-06-22T11:36:42;33.50;99.90
13344;DHT22;6741;48.964;9.406;2023-06-22T11:39:09;33.40;99.90
13344;DHT22;6741;48.964;9.406;2023-06-22T11:41:37;33.30;4.40
13344;DHT22;6741;48.964;9.406;2023-06-22T11:44:04;33.00;1.00
13344;DHT22;6741;48.964;9.406;2023-06-22T11:46:33;32.90;99.90
13344;DHT22;6741;48.964;9.406;2023-06-22T11:49:01;32.90;1.00
13344;DHT22;6741;48.964;9.406;2023-06-22T11:51:28;32.80;1.00
13344;DHT22;6741;48.964;9.406;2023-06-22T11:53:57;32.90;99.90
13344;DHT22;6741;48.964;9.406;2023-06-22T11:56:24;32.90;99.90
13344;DHT22;6741;48.964;9.406;2023-06-22T11:58:54;33.00;1.00
13344;DHT22;6741;48.964;9.406;2023-06-22T12:01:21;33.40;1.00
13344;DHT22;6741;48.964;9.406;2023-06-22T12:03:49;33.70;99.90
13344;DHT22;6741;48.964;9.406;2023-06-22T12:06:17;33.90;99.90
13344;DHT22;6741;48.964;9.406;2023-06-22T12:08:44;33.80;99.90
13344;DHT22;6741;48.964;9.406;2023-06-22T12:11:11;33.70;1.00
13344;DHT22;6741;48.964;9.406;2023-06-22T12:13:38;33.80;1.00
13344;DHT22;6741;48.964;9.406;2023-06-22T12:16:05;33.70;1.00
13344;DHT22;6741;48.964;9.406;2023-06-22T12:18:32;33.50;1.00
13344;DHT22;6741;48.964;9.406;2023-06-22T12:21:01;33.10;1.00
13344;DHT22;6741;48.964;9.406;2023-06-22T12:23:28;33.00;99.90
13344;DHT22;6741;48.964;9.406;2023-06-22T12:25:54;32.90;99.90
13344;DHT22;6741;48.964;9.406;2023-06-22T12:28:21;32.80;99.90
13344;DHT22;6741;48.964;9.406;2023-06-22T12:30:49;32.50;99.90
13344;DHT22;6741;48.964;9.406;2023-06-22T12:33:16;32.00;1.00
13344;DHT22;6741;48.964;9.406;2023-06-22T12:35:43;31.80;1.00
13344;DHT22;6741;48.964;9.406;2023-06-22T12:38:12;31.60;1.00
13344;DHT22;6741;48.964;9.406;2023-06-22T12:40:39;31.50;99.90
13344;DHT22;6741;48.964;9.406;2023-06-22T12:43:06;31.50;87.00
13344;DHT22;6741;48.964;9.406;2023-06-22T12:45:33;31.50;99.90
13344;DHT22;6741;48.964;9.406;2023-06-22T12:48:00;31.30;1.00
13344;DHT22;6741;48.964;9.406;2023-06-22T12:50:27;31.20;99.90
13344;DHT22;6741;48.964;9.406;2023-06-22T12:52:54;31.30;99.90
13344;DHT22;6741;48.964;9.406;2023-06-22T12:55:23;31.40;24.30
13344;DHT22;6741;48.964;9.406;2023-06-22T12:57:50;31.50;77.10
13344;DHT22;6741;48.964;9.406;2023-06-22T13:00:17;31.40;1.00
13344;DHT22;6741;48.964;9.406;2023-06-22T13:02:44;31.20;1.00
13344;DHT22;6741;48.964;9.406;2023-06-22T13:05:11;31.10;99.90
13344;DHT22;6741;48.964;9.406;2023-06-22T13:07:38;30.70;1.00
13344;DHT22;6741;48.964;9.406;2023-06-22T13:10:05;30.70;1.00
13344;DHT22;6741;48.964;9.406;2023-06-22T13:12:34;30.60;1.00
13344;DHT22;6741;48.964;9.406;2023-06-22T13:15:00;30.50;1.00
13344;DHT22;6741;48.964;9.406;2023-06-22T13:17:28;30.50;99.90
13344;DHT22;6741;48.964;9.406;2023-06-22T13:19:55;30.30;1.00
13344;DHT22;6741;48.964;9.406;2023-06-22T13:22:29;30.30;1.00
13344;DHT22;6741;48.964;9.406;2023-06-22T13:24:56;30.40;99.90
13344;DHT22;6741;48.964;9.406;2023-06-22T13:27:23;30.40;99.90
13344;DHT22;6741;48.964;9.406;2023-06-22T13:29:52;30.30;97.90
13344;DHT22;6741;48.964;9.406;2023-06-22T13:32:19;30.20;99.90
13344;DHT22;6741;48.964;9.406;2023-06-22T13:34:46;30.20;1.00
13344;DHT22;6741;48.964;9.406;2023-06-22T13:37:12;30.30;99.90
13344;DHT22;6741;48.964;9.406;2023-06-22T13:39:39;30.20;99.90
13344;DHT22;6741;48.964;9.406;2023-06-22T13:42:07;30.50;1.00
13344;DHT22;6741;48.964;9.406;2023-06-22T13:44:34;30.80;1.00
13344;DHT22;6741;48.964;9.406;2023-06-22T13:47:02;31.00;99.90
13344;DHT22;6741;48.964;9.406;2023-06-22T13:49:30;31.00;99.90
13344;DHT22;6741;48.964;9.406;2023-06-22T13:51:57;31.20;1.00
13344;DHT22;6741;48.964;9.406;2023-06-22T13:54:23;31.20;1.00
13344;DHT22;6741;48.964;9.406;2023-06-22T13:56:50;31.30;1.00
13344;DHT22;6741;48.964;9.406;2023-06-22T13:59:17;31.50;1.00
13344;DHT22;6741;48.964;9.406;2023-06-22T14:01:45;31.80;99.90
13344;DHT22;6741;48.964;9.406;2023-06-22T14:04:13;31.90;99.90
13344;DHT22;6741;48.964;9.406;2023-06-22T14:06:40;32.40;99.90
13344;DHT22;6741;48.964;9.406;2023-06-22T14:09:07;32.60;99.90
13344;DHT22;6741;48.964;9.406;2023-06-22T14:11:34;32.70;99.90
13344;DHT22;6741;48.964;9.406;2023-06-22T14:14:01;32.60;99.90
13344;DHT22;6741;48.964;9.406;2023-06-22T14:16:28;32.50;99.90
13344;DHT22;6741;48.964;9.406;2023-06-22T14:18:55;32.30;99.90
13344;DHT22;6741;48.964;9.406;2023-06-22T14:21:23;32.10;99.90
13344;DHT22;6741;48.964;9.406;2023-06-22T14:23:50;32.10;1.00
13344;DHT22;6741;48.964;9.406;2023-06-22T14:26:19;32.30;99.90
13344;DHT22;6741;48.964;9.406;2023-06-22T14:28:46;32.50;99.90
13344;DHT22;6741;48.964;9.406;2023-06-22T14:31:14;32.60;99.90
13344;DHT22;6741;48.964;9.406;2023-06-22T14:33:46;32.70;99.90
13344;DHT22;6741;48.964;9.406;2023-06-22T14:36:13;32.80;99.90
13344;DHT22;6741;48.964;9.406;2023-06-22T14:38:42;33.90;99.90
13344;DHT22;6741;48.964;9.406;2023-06-22T14:41:09;35.40;1.00
13344;DHT22;6741;48.964;9.406;2023-06-22T14:43:36;36.70;99.90
13344;DHT22;6741;48.964;9.406;2023-06-22T14:46:03;37.10;1.00
13344;DHT22;6741;48.964;9.406;2023-06-22T14:48:30;37.40;99.90
13344;DHT22;6741;48.964;9.406;2023-06-22T14:50:57;37.30;99.90
13344;DHT22;6741;48.964;9.406;2023-06-22T14:53:25;36.60;99.90
13344;DHT22;6741;48.964;9.406;2023-06-22T14:55:54;36.10;90.60
13344;DHT22;6741;48.964;9.406;2023-06-22T14:58:21;35.90;1.00
13344;DHT22;6741;48.964;9.406;2023-06-22T15:00:48;35.30;99.90
13344;DHT22;6741;48.964;9.406;2023-06-22T15:03:15;35.30;1.00
13344;DHT22;6741;48.964;9.406;2023-06-22T15:05:47;35.60;1.00
13344;DHT22;6741;48.964;9.406;2023-06-22T15:08:14;36.60;1.00
13344;DHT22;6741;48.964;9.406;2023-06-22T15:10:41;36.70;20.60
13344;DHT22;6741;48.964;9.406;2023-06-22T15:13:09;36.70;99.90
13344;DHT22;6741;48.964;9.406;2023-06-22T15:15:36;37.40;99.90
13344;DHT22;6741;48.964;9.406;2023-06-22T15:18:03;37.50;1.00
13344;DHT22;6741;48.964;9.406;2023-06-22T15:20:31;36.40;1.00
13344;DHT22;6741;48.964;9.406;2023-06-22T15:22:57;35.80;1.00
13344;DHT22;6741;48.964;9.406;2023-06-22T15:25:24;35.70;1.00
13344;DHT22;6741;48.964;9.406;2023-06-22T15:27:51;35.00;1.00
13344;DHT22;6741;48.964;9.406;2023-06-22T15:30:19;34.60;1.00
13344;DHT22;6741;48.964;9.406;2023-06-22T15:32:46;34.10;1.00
13344;DHT22;6741;48.964;9.406;2023-06-22T15:35:15;34.00;1.00
13344;DHT22;6741;48.964;9.406;2023-06-22T15:37:44;34.80;1.00
13344;DHT22;6741;48.964;9.406;2023-06-22T15:40:11;34.60;1.00
13344;DHT22;6741;48.964;9.406;2023-06-22T15:42:38;34.50;1.00
13344;DHT22;6741;48.964;9.406;2023-06-22T15:45:06;34.30;1.00
13344;DHT22;6741;48.964;9.406;2023-06-22T15:47:34;34.40;1.00
13344;DHT22;6741;48.964;9.406;2023-06-22T15:50:02;34.50;1.00
13344;DHT22;6741;48.964;9.406;2023-06-22T15:52:29;33.50;1.00